sensor_id;sensor_type;location;lat;lon;timestamp;temperature;humidity
32107;DHT22;18622;51.998;10.440;2022-08-25T02:20:41;17.20;86.00
32107;DHT22;18622;51.998;10.440;2022-08-25T02:23:09;17.20;86.50
32107;DHT22;18622;51.998;10.440;2022-08-25T02:25:38;17.10;86.10
32107;DHT22;18622;51.998;10.440;2022-08-25T02:28:07;17.10;86.30
32107;DHT22;18622;51.998;10.440;2022-08-25T02:30:37;17.10;86.40
32107;DHT22;18622;51.998;10.440;2022-08-25T02:33:05;17.10;86.70
32107;DHT22;18622;51.998;10.440;2022-08-25T02:35:33;17.10;86.60
32107;DHT22;18622;51.998;10.440;2022-08-25T02:38:01;17.00;86.70
32107;DHT22;18622;51.998;10.440;2022-08-25T02:40:29;17.00;86.90
32107;DHT22;18622;51.998;10.440;2022-08-25T02:42:57;17.00;86.90
32107;DHT22;18622;51.998;10.440;2022-08-25T02:45:24;17.00;87.10
32107;DHT22;18622;51.998;10.440;2022-08-25T02:47:52;16.90;87.30
32107;DHT22;18622;51.998;10.440;2022-08-25T02:50:20;16.90;87.40
32107;DHT22;18622;51.998;10.440;2022-08-25T02:52:48;16.90;87.40
32107;DHT22;18622;51.998;10.440;2022-08-25T02:55:17;16.90;87.40
32107;DHT22;18622;51.998;10.440;2022-08-25T02:57:45;16.90;87.70
32107;DHT22;18622;51.998;10.440;2022-08-25T03:35:01;16.70;89.50
32107;DHT22;18622;51.998;10.440;2022-08-25T03:37:29;16.60;89.70
32107;DHT22;18622;51.998;10.440;2022-08-25T03:39:56;16.60;90.10
32107;DHT22;18622;51.998;10.440;2022-08-25T03:42:24;16.60;90.00
32107;DHT22;18622;51.998;10.440;2022-08-25T03:44:52;16.60;90.00
32107;DHT22;18622;51.998;10.440;2022-08-25T03:47:20;16.50;90.10
32107;DHT22;18622;51.998;10.440;2022-08-25T03:49:50;16.60;90.30
32107;DHT22;18622;51.998;10.440;2022-08-25T03:52:17;16.50;90.30
32107;DHT22;18622;51.998;10.440;2022-08-25T03:54:46;16.50;90.40
32107;DHT22;18622;51.998;10.440;2022-08-25T03:57:14;16.50;90.40
32107;DHT22;18622;51.998;10.440;2022-08-25T03:59:42;16.50;90.50
32107;DHT22;18622;51.998;10.440;2022-08-25T04:02:09;16.40;90.50
32107;DHT22;18622;51.998;10.440;2022-08-25T04:04:37;16.40;90.60
32107;DHT22;18622;51.998;10.440;2022-08-25T04:07:06;16.40;90.80
32107;DHT22;18622;51.998;10.440;2022-08-25T04:09:34;16.40;90.70
32107;DHT22;18622;51.998;10.440;2022-08-25T04:12:02;16.40;90.80
32107;DHT22;18622;51.998;10.440;2022-08-25T04:14:30;16.40;90.90
32107;DHT22;18622;51.998;10.440;2022-08-25T04:16:58;16.40;90.90
32107;DHT22;18622;51.998;10.440;2022-08-25T04:19:26;16.40;90.90
32107;DHT22;18622;51.998;10.440;2022-08-25T04:21:53;16.40;91.00
32107;DHT22;18622;51.998;10.440;2022-08-25T04:24:21;16.40;91.10
32107;DHT22;18622;51.998;10.440;2022-08-25T04:26:50;16.40;91.20
32107;DHT22;18622;51.998;10.440;2022-08-25T04:29:21;16.40;91.20
32107;DHT22;18622;51.998;10.440;2022-08-25T04:31:49;16.50;91.20
32107;DHT22;18622;51.998;10.440;2022-08-25T04:34:18;16.50;91.30
32107;DHT22;18622;51.998;10.440;2022-08-25T04:36:45;16.50;91.40
32107;DHT22;18622;51.998;10.440;2022-08-25T04:39:16;16.50;91.30
32107;DHT22;18622;51.998;10.440;2022-08-25T04:41:46;16.50;91.30
32107;DHT22;18622;51.998;10.440;2022-08-25T04:44:14;16.50;91.40
32107;DHT22;18622;51.998;10.440;2022-08-25T04:46:42;16.60;91.40
32107;DHT22;18622;51.998;10.440;2022-08-25T04:49:10;16.60;91.40
32107;DHT22;18622;51.998;10.440;2022-08-25T04:51:39;16.60;91.50
32107;DHT22;18622;51.998;10.440;2022-08-25T04:54:11;16.60;91.60
32107;DHT22;18622;51.998;10.440;2022-08-25T04:56:39;16.70;91.80
32107;DHT22;18622;51.998;10.440;2022-08-25T04:59:09;16.70;91.60
32107;DHT22;18622;51.998;10.440;2022-08-25T05:01:38;16.80;91.60
32107;DHT22;18622;51.998;10.440;2022-08-25T05:04:10;16.90;91.60
32107;DHT22;18622;51.998;10.440;2022-08-25T05:06:39;16.90;91.60
32107;DHT22;18622;51.998;10.440;2022-08-25T05:09:07;17.00;91.60
32107;DHT22;18622;51.998;10.440;2022-08-25T05:11:35;17.00;91.50
32107;DHT22;18622;51.998;10.440;2022-08-25T05:14:04;17.10;91.50
32107;DHT22;18622;51.998;10.440;2022-08-25T05:16:33;17.20;91.40
32107;DHT22;18622;51.998;10.440;2022-08-25T05:19:01;17.20;91.30
32107;DHT22;18622;51.998;10.440;2022-08-25T05:21:30;17.30;91.30
32107;DHT22;18622;51.998;10.440;2022-08-25T05:23:59;17.30;91.30
32107;DHT22;18622;51.998;10.440;2022-08-25T05:26:29;17.40;91.20
32107;DHT22;18622;51.998;10.440;2022-08-25T05:28:59;17.50;91.10
32107;DHT22;18622;51.998;10.440;2022-08-25T09:04:23;32.80;57.30
32107;DHT22;18622;51.998;10.440;2022-08-25T09:06:50;32.70;56.80
32107;DHT22;18622;51.998;10.440;2022-08-25T09:09:27;32.90;56.30
32107;DHT22;18622;51.998;10.440;2022-08-25T09:14:53;33.20;55.00
32107;DHT22;18622;51.998;10.440;2022-08-25T09:25:47;34.70;50.50
32107;DHT22;18622;51.998;10.440;2022-08-25T09:30:59;35.00;49.70
32107;DHT22;18622;51.998;10.440;2022-08-25T09:33:27;35.30;49.00
32107;DHT22;18622;51.998;10.440;2022-08-25T09:35:55;35.10;48.80
32107;DHT22;18622;51.998;10.440;2022-08-25T09:38:25;35.30;49.00
32107;DHT22;18622;51.998;10.440;2022-08-25T09:40:57;35.50;48.00
32107;DHT22;18622;51.998;10.440;2022-08-25T09:43:31;35.60;47.70
32107;DHT22;18622;51.998;10.440;2022-08-25T09:46:14;35.40;47.50
32107;DHT22;18622;51.998;10.440;2022-08-25T09:48:51;35.30;48.00
32107;DHT22;18622;51.998;10.440;2022-08-25T09:51:31;35.70;47.70
32107;DHT22;18622;51.998;10.440;2022-08-25T09:56:57;36.80;45.40
32107;DHT22;18622;51.998;10.440;2022-08-25T09:59:29;37.20;44.30
32107;DHT22;18622;51.998;10.440;2022-08-25T10:02:01;37.50;43.90
32107;DHT22;18622;51.998;10.440;2022-08-25T10:04:31;37.70;43.50
32107;DHT22;18622;51.998;10.440;2022-08-25T10:07:02;37.60;43.40
32107;DHT22;18622;51.998;10.440;2022-08-25T10:09:38;37.40;43.20
32107;DHT22;18622;51.998;10.440;2022-08-25T10:12:28;37.30;43.60
32107;DHT22;18622;51.998;10.440;2022-08-25T10:14:51;37.00;43.40
32107;DHT22;18622;51.998;10.440;2022-08-25T10:17:24;36.40;43.50
32107;DHT22;18622;51.998;10.440;2022-08-25T10:19:55;36.20;44.30
32107;DHT22;18622;51.998;10.440;2022-08-25T10:22:26;36.40;44.40
32107;DHT22;18622;51.998;10.440;2022-08-25T10:25:00;36.90;43.90
32107;DHT22;18622;51.998;10.440;2022-08-25T10:27:35;37.30;42.00
32107;DHT22;18622;51.998;10.440;2022-08-25T10:35:21;37.10;43.00
32107;DHT22;18622;51.998;10.440;2022-08-25T10:41:39;38.00;41.50
32107;DHT22;18622;51.998;10.440;2022-08-25T10:46:33;38.80;40.60
32107;DHT22;18622;51.998;10.440;2022-08-25T10:51:40;39.10;39.80
32107;DHT22;18622;51.998;10.440;2022-08-25T14:41:50;42.60;32.00
32107;DHT22;18622;51.998;10.440;2022-08-25T14:44:18;42.40;32.50
32107;DHT22;18622;51.998;10.440;2022-08-25T14:46:54;42.20;32.40
32107;DHT22;18622;51.998;10.440;2022-08-25T14:49:25;42.00;33.10
32107;DHT22;18622;51.998;10.440;2022-08-25T14:51:56;41.70;33.20
32107;DHT22;18622;51.998;10.440;2022-08-25T14:54:25;41.50;33.80
32107;DHT22;18622;51.998;10.440;2022-08-25T14:56:53;41.20;33.60
32107;DHT22;18622;51.998;10.440;2022-08-25T14:59:22;40.90;34.20
32107;DHT22;18622;51.998;10.440;2022-08-25T15:01:50;40.50;34.70
32107;DHT22;18622;51.998;10.440;2022-08-25T15:04:20;40.60;34.40
32107;DHT22;18622;51.998;10.440;2022-08-25T15:06:58;40.70;33.60
32107;DHT22;18622;51.998;10.440;2022-08-25T15:09:25;40.70;34.00
32107;DHT22;18622;51.998;10.440;2022-08-25T15:11:55;40.80;34.10
32107;DHT22;18622;51.998;10.440;2022-08-25T15:14:24;40.90;34.00
32107;DHT22;18622;51.998;10.440;2022-08-25T15:16:53;41.00;33.90
32107;DHT22;18622;51.998;10.440;2022-08-25T15:19:24;40.80;33.40
32107;DHT22;18622;51.998;10.440;2022-08-25T15:21:52;40.60;33.70
32107;DHT22;18622;51.998;10.440;2022-08-25T15:24:21;40.60;34.20
32107;DHT22;18622;51.998;10.440;2022-08-25T15:26:56;40.70;34.50
32107;DHT22;18622;51.998;10.440;2022-08-25T15:29:25;40.90;34.20
32107;DHT22;18622;51.998;10.440;2022-08-25T15:31:56;41.20;33.80
32107;DHT22;18622;51.998;10.440;2022-08-25T15:34:24;41.40;33.40
32107;DHT22;18622;51.998;10.440;2022-08-25T15:36:52;41.40;33.10
32107;DHT22;18622;51.998;10.440;2022-08-25T15:39:20;40.90;33.20
32107;DHT22;18622;51.998;10.440;2022-08-25T15:41:47;40.30;33.60
32107;DHT22;18622;51.998;10.440;2022-08-25T15:44:17;39.60;34.60
32107;DHT22;18622;51.998;10.440;2022-08-25T15:46:45;38.80;35.70
32107;DHT22;18622;51.998;10.440;2022-08-25T15:49:13;38.10;36.30
32107;DHT22;18622;51.998;10.440;2022-08-25T15:51:41;37.50;36.30
32107;DHT22;18622;51.998;10.440;2022-08-25T15:54:08;36.90;37.20
32107;DHT22;18622;51.998;10.440;2022-08-25T15:56:36;36.30;37.50
32107;DHT22;18622;51.998;10.440;2022-08-25T15:59:05;35.90;38.80
32107;DHT22;18622;51.998;10.440;2022-08-25T16:01:32;35.70;38.60
32107;DHT22;18622;51.998;10.440;2022-08-25T16:04:00;35.50;38.80
32107;DHT22;18622;51.998;10.440;2022-08-25T16:06:28;36.00;38.60
32107;DHT22;18622;51.998;10.440;2022-08-25T16:08:56;36.40;37.50
32107;DHT22;18622;51.998;10.440;2022-08-25T16:11:26;36.80;37.70
32107;DHT22;18622;51.998;10.440;2022-08-25T16:13:55;36.60;38.10
32107;DHT22;18622;51.998;10.440;2022-08-25T16:16:25;36.30;38.10
32107;DHT22;18622;51.998;10.440;2022-08-25T16:18:54;36.20;38.80
32107;DHT22;18622;51.998;10.440;2022-08-25T16:21:26;36.20;38.60
32107;DHT22;18622;51.998;10.440;2022-08-25T16:23:56;36.20;38.60
32107;DHT22;18622;51.998;10.440;2022-08-25T16:26:24;36.10;39.10
32107;DHT22;18622;51.998;10.440;2022-08-25T16:28:52;35.90;39.30
32107;DHT22;18622;51.998;10.440;2022-08-25T16:31:20;35.70;39.20
32107;DHT22;18622;51.998;10.440;2022-08-25T16:33:48;35.50;39.70
32107;DHT22;18622;51.998;10.440;2022-08-25T16:36:19;35.20;39.90
32107;DHT22;18622;51.998;10.440;2022-08-25T16:38:48;34.80;41.20
32107;DHT22;18622;51.998;10.440;2022-08-25T16:41:18;34.40;41.10
32107;DHT22;18622;51.998;10.440;2022-08-25T16:43:46;34.10;41.70
32107;DHT22;18622;51.998;10.440;2022-08-25T16:46:16;33.70;42.10
32107;DHT22;18622;51.998;10.440;2022-08-25T16:48:44;33.50;42.60
32107;DHT22;18622;51.998;10.440;2022-08-25T16:51:15;33.40;43.10
32107;DHT22;18622;51.998;10.440;2022-08-25T16:53:43;33.20;43.40
32107;DHT22;18622;51.998;10.440;2022-08-25T16:56:29;33.10;43.40
32107;DHT22;18622;51.998;10.440;2022-08-25T16:58:59;33.10;43.20
32107;DHT22;18622;51.998;10.440;2022-08-25T17:01:29;32.90;43.20
32107;DHT22;18622;51.998;10.440;2022-08-25T17:03:59;32.70;44.20
32107;DHT22;18622;51.998;10.440;2022-08-25T17:06:28;32.50;44.00
32107;DHT22;18622;51.998;10.440;2022-08-25T17:08:55;32.30;44.20
32107;DHT22;18622;51.998;10.440;2022-08-25T17:11:28;32.20;44.60
32107;DHT22;18622;51.998;10.440;2022-08-25T17:13:58;31.90;45.00
32107;DHT22;18622;51.998;10.440;2022-08-25T17:16:28;31.80;45.60
32107;DHT22;18622;51.998;10.440;2022-08-25T17:18:58;31.70;45.90
32107;DHT22;18622;51.998;10.440;2022-08-25T17:21:29;31.70;46.00
32107;DHT22;18622;51.998;10.440;2022-08-25T17:23:56;31.50;46.60
32107;DHT22;18622;51.998;10.440;2022-08-25T17:26:25;31.30;46.90
32107;DHT22;18622;51.998;10.440;2022-08-25T17:28:53;31.10;46.90
32107;DHT22;18622;51.998;10.440;2022-08-25T17:31:21;30.90;46.90
32107;DHT22;18622;51.998;10.440;2022-08-25T17:33:49;30.70;47.20
32107;DHT22;18622;51.998;10.440;2022-08-25T17:36:18;30.60;47.80
32107;DHT22;18622;51.998;10.440;2022-08-25T17:38:45;30.40;47.80
32107;DHT22;18622;51.998;10.440;2022-08-25T17:41:13;30.30;48.00
32107;DHT22;18622;51.998;10.440;2022-08-25T17:43:41;30.10;48.50
32107;DHT22;18622;51.998;10.440;2022-08-25T17:46:10;30.00;49.00
32107;DHT22;18622;51.998;10.440;2022-08-25T17:48:39;29.90;49.20
32107;DHT22;18622;51.998;10.440;2022-08-25T17:51:07;29.70;49.20
32107;DHT22;18622;51.998;10.440;2022-08-25T17:53:35;29.60;49.40
32107;DHT22;18622;51.998;10.440;2022-08-25T17:56:10;29.40;49.60
32107;DHT22;18622;51.998;10.440;2022-08-25T17:58:33;29.30;50.10
32107;DHT22;18622;51.998;10.440;2022-08-25T18:01:02;29.20;50.90
32107;DHT22;18622;51.998;10.440;2022-08-25T18:03:31;29.00;51.00
32107;DHT22;18622;51.998;10.440;2022-08-25T18:05:59;28.90;51.10
32107;DHT22;18622;51.998;10.440;2022-08-25T18:08:28;28.80;51.30
32107;DHT22;18622;51.998;10.440;2022-08-25T18:10:56;28.70;51.80
32107;DHT22;18622;51.998;10.440;2022-08-25T18:13:24;28.50;52.10
32107;DHT22;18622;51.998;10.440;2022-08-25T18:15:52;28.40;52.30
32107;DHT22;18622;51.998;10.440;2022-08-25T18:18:20;28.20;52.60
32107;DHT22;18622;51.998;10.440;2022-08-25T18:20:47;28.10;53.10
32107;DHT22;18622;51.998;10.440;2022-08-25T18:23:16;27.90;53.50
32107;DHT22;18622;51.998;10.440;2022-08-25T18:25:44;27.80;53.90
32107;DHT22;18622;51.998;10.440;2022-08-25T18:28:13;27.70;53.50
32107;DHT22;18622;51.998;10.440;2022-08-25T18:30:41;27.50;54.10
32107;DHT22;18622;51.998;10.440;2022-08-25T18:33:09;27.30;54.80
32107;DHT22;18622;51.998;10.440;2022-08-25T18:35:37;27.10;55.40
32107;DHT22;18622;51.998;10.440;2022-08-25T18:38:05;27.00;56.00
32107;DHT22;18622;51.998;10.440;2022-08-25T18:40:59;26.80;56.70
32107;DHT22;18622;51.998;10.440;2022-08-25T18:43:27;26.70;56.90
32107;DHT22;18622;51.998;10.440;2022-08-25T18:45:55;26.50;57.50
32107;DHT22;18622;51.998;10.440;2022-08-25T18:48:25;26.40;57.90
32107;DHT22;18622;51.998;10.440;2022-08-25T18:50:54;26.30;58.40
32107;DHT22;18622;51.998;10.440;2022-08-25T18:53:24;26.20;58.60
32107;DHT22;18622;51.998;10.440;2022-08-25T18:55:53;26.10;59.10
32107;DHT22;18622;51.998;10.440;2022-08-25T18:58:21;25.90;59.20
32107;DHT22;18622;51.998;10.440;2022-08-25T19:00:48;25.90;58.90
32107;DHT22;18622;51.998;10.440;2022-08-25T19:03:19;25.80;59.30
32107;DHT22;18622;51.998;10.440;2022-08-25T19:05:49;25.60;59.80
32107;DHT22;18622;51.998;10.440;2022-08-25T19:08:19;25.50;60.20
32107;DHT22;18622;51.998;10.440;2022-08-25T19:10:49;25.40;60.60
32107;DHT22;18622;51.998;10.440;2022-08-25T19:13:17;25.30;61.00
32107;DHT22;18622;51.998;10.440;2022-08-25T19:15:45;25.20;61.50
32107;DHT22;18622;51.998;10.440;2022-08-25T19:18:14;25.10;62.20
32107;DHT22;18622;51.998;10.440;2022-08-25T19:20:42;25.00;62.50
32107;DHT22;18622;51.998;10.440;2022-08-25T19:23:10;24.90;62.70
32107;DHT22;18622;51.998;10.440;2022-08-25T19:25:38;24.80;63.10
32107;DHT22;18622;51.998;10.440;2022-08-25T19:28:09;24.80;63.30
32107;DHT22;18622;51.998;10.440;2022-08-25T19:30:37;24.70;63.70
32107;DHT22;18622;51.998;10.440;2022-08-25T19:33:08;24.60;64.10
32107;DHT22;18622;51.998;10.440;2022-08-25T19:35:45;24.60;64.40
32107;DHT22;18622;51.998;10.440;2022-08-25T19:38:15;24.50;65.10
32107;DHT22;18622;51.998;10.440;2022-08-25T19:40:44;24.40;65.80
32107;DHT22;18622;51.998;10.440;2022-08-25T19:43:12;24.30;65.90
32107;DHT22;18622;51.998;10.440;2022-08-25T19:45:40;24.30;66.50
32107;DHT22;18622;51.998;10.440;2022-08-25T19:48:09;24.20;66.90
32107;DHT22;18622;51.998;10.440;2022-08-25T19:50:37;24.10;67.20
32107;DHT22;18622;51.998;10.440;2022-08-25T19:53:05;24.10;67.40
32107;DHT22;18622;51.998;10.440;2022-08-25T19:55:33;24.10;67.70
32107;DHT22;18622;51.998;10.440;2022-08-25T19:58:02;24.00;68.00
32107;DHT22;18622;51.998;10.440;2022-08-25T20:00:31;23.90;68.10
32107;DHT22;18622;51.998;10.440;2022-08-25T20:03:00;23.90;68.40
32107;DHT22;18622;51.998;10.440;2022-08-25T20:05:29;23.90;68.70
32107;DHT22;18622;51.998;10.440;2022-08-25T20:07:58;23.80;69.00
32107;DHT22;18622;51.998;10.440;2022-08-25T20:10:28;23.80;69.30
32107;DHT22;18622;51.998;10.440;2022-08-25T20:12:58;23.80;69.50
32107;DHT22;18622;51.998;10.440;2022-08-25T20:15:25;23.70;69.80
32107;DHT22;18622;51.998;10.440;2022-08-25T20:17:53;23.70;70.10
32107;DHT22;18622;51.998;10.440;2022-08-25T20:20:21;23.70;70.30
32107;DHT22;18622;51.998;10.440;2022-08-25T20:25:27;23.50;70.90
32107;DHT22;18622;51.998;10.440;2022-08-25T20:27:56;23.50;71.30
32107;DHT22;18622;51.998;10.440;2022-08-25T20:30:27;23.40;71.40
32107;DHT22;18622;51.998;10.440;2022-08-25T20:32:56;23.40;71.90
32107;DHT22;18622;51.998;10.440;2022-08-25T20:35:25;23.30;72.10
32107;DHT22;18622;51.998;10.440;2022-08-25T20:37:58;23.30;72.30
32107;DHT22;18622;51.998;10.440;2022-08-25T20:40:25;23.30;72.60
32107;DHT22;18622;51.998;10.440;2022-08-25T20:42:56;23.20;72.70
32107;DHT22;18622;51.998;10.440;2022-08-25T20:45:24;23.20;73.10
32107;DHT22;18622;51.998;10.440;2022-08-25T20:47:52;23.20;73.20
32107;DHT22;18622;51.998;10.440;2022-08-25T20:50:20;23.20;73.40
32107;DHT22;18622;51.998;10.440;2022-08-25T20:52:50;23.10;73.50
32107;DHT22;18622;51.998;10.440;2022-08-25T20:55:19;23.10;73.70
32107;DHT22;18622;51.998;10.440;2022-08-25T20:57:48;23.00;74.00
